Time;durP1;ratioP1;P1;durP2;ratioP2;P2;SDS_P1;SDS_P2;PMS_P1;PMS_P2;Temp;Humidity;BMP_temperature;BMP_pressure;BME280_temperature;BME280_humidity;BME280_pressure;Samples;Min_cycle;Max_cycle;Signal;HPM_P1;HPM_P2
2023/05/04 00:01:10;;;;;;;;;;;;;;;10.90;60.08;93202.63;2055072;70;20047;-73
2023/05/04 00:03:38;;;;;;;;;;;;;;;10.90;60.45;93199.81;2068155;69;20050;-74
2023/05/04 00:06:04;;;;;;;;;;;;;;;10.90;60.48;93197.00;2055525;69;20050;-73
2023/05/04 00:08:30;;;;;;;;;;;;;;;10.95;59.49;93198.00;2068777;69;20057;-76
2023/05/04 00:10:56;;;;;;;;;;;;;;;10.82;61.00;93198.53;2055526;69;20054;-73
2023/05/04 00:13:22;;;;;;;;;;;;;;;10.94;59.96;93199.31;2055526;70;20178;-73
2023/05/04 00:15:47;;;;;;;;;;;;;;;10.90;59.58;93205.44;2068500;69;20112;-74
2023/05/04 00:18:13;;;;;;;;;;;;;;;10.94;58.89;93200.06;2055671;70;20553;-73
2023/05/04 00:20:38;;;;;;;;;;;;;;;10.86;60.14;93195.97;2068607;69;20135;-73
2023/05/04 00:23:03;;;;;;;;;;;;;;;10.82;59.60;93184.44;2055482;69;20069;-72
2023/05/04 00:25:29;;;;;;;;;;;;;;;10.89;59.86;93195.50;2068377;69;20073;-73
2023/05/04 00:27:55;;;;;;;;;;;;;;;10.89;59.45;93200.38;2068417;69;20051;-73
2023/05/04 00:30:20;;;;;;;;;;;;;;;10.91;58.53;93194.91;2055432;70;20046;-72
2023/05/04 00:32:45;;;;;;;;;;;;;;;10.91;58.56;93195.66;2068337;69;20473;-73
2023/05/04 00:35:11;;;;;;;;;;;;;;;10.79;59.10;93189.19;2055131;70;20534;-73
2023/05/04 00:37:37;;;;;;;;;;;;;;;10.85;58.88;93189.59;2068303;69;20066;-73
2023/05/04 00:40:02;;;;;;;;;;;;;;;10.80;59.59;93187.09;2068401;69;20116;-73
2023/05/04 00:42:28;;;;;;;;;;;;;;;10.73;59.01;93176.78;2055168;70;20060;-73
2023/05/04 00:44:53;;;;;;;;;;;;;;;10.60;60.82;93183.66;2055586;69;20428;-73
2023/05/04 00:47:20;;;;;;;;;;;;;;;10.54;60.45;93180.44;2068326;69;20080;-73
2023/05/04 00:49:46;;;;;;;;;;;;;;;10.73;59.40;93183.16;2055609;70;20065;-73
2023/05/04 00:52:13;;;;;;;;;;;;;;;10.63;60.04;93179.66;2055579;69;20496;-73
2023/05/04 00:54:40;;;;;;;;;;;;;;;10.38;60.12;93177.97;2055654;70;20208;-73
2023/05/04 00:57:06;;;;;;;;;;;;;;;10.38;60.72;93171.59;2055568;70;20480;-73
2023/05/04 00:59:32;;;;;;;;;;;;;;;10.39;60.80;93182.25;2068665;69;20047;-74
2023/05/04 01:01:58;;;;;;;;;;;;;;;10.28;61.24;93174.44;2068280;69;20091;-72
2023/05/04 01:04:23;;;;;;;;;;;;;;;10.40;60.89;93177.34;2055681;70;20149;-73
2023/05/04 01:07:12;;;;;;;;;;;;;;;10.34;61.55;93171.31;2068418;69;20076;-73
2023/05/04 01:09:44;;;;;;;;;;;;;;;10.45;60.15;93176.31;2071306;69;20054;-73
2023/05/04 01:12:26;;;;;;;;;;;;;;;10.15;61.20;93174.91;2068401;69;20161;-73
2023/05/04 01:14:53;;;;;;;;;;;;;;;10.24;59.81;93170.59;2055482;70;20054;-72
2023/05/04 01:17:19;;;;;;;;;;;;;;;10.31;59.34;93178.91;2068530;69;20056;-72
2023/05/04 01:19:45;;;;;;;;;;;;;;;10.32;59.56;93177.56;2055695;70;20146;-74
2023/05/04 01:22:10;;;;;;;;;;;;;;;10.26;59.60;93177.13;2055359;70;20050;-73
2023/05/04 01:24:36;;;;;;;;;;;;;;;10.39;58.65;93179.44;2055739;70;20050;-73
2023/05/04 01:27:10;;;;;;;;;;;;;;;10.36;59.21;93177.09;2068317;69;20481;-74
2023/05/04 01:29:45;;;;;;;;;;;;;;;10.22;60.65;93181.69;2055631;70;20054;-73
2023/05/04 01:32:13;;;;;;;;;;;;;;;10.16;60.58;93176.38;2055343;70;20120;-73
2023/05/04 01:34:39;;;;;;;;;;;;;;;10.22;59.85;93178.88;2055405;69;20114;-72
2023/05/04 01:37:05;;;;;;;;;;;;;;;10.16;60.24;93179.94;2068312;69;20274;-72
2023/05/04 01:39:30;;;;;;;;;;;;;;;10.03;61.42;93183.22;2068335;69;20054;-72
2023/05/04 01:41:56;;;;;;;;;;;;;;;10.08;60.68;93181.44;2055008;70;20061;-72
2023/05/04 01:44:21;;;;;;;;;;;;;;;9.96;61.21;93186.22;2055468;69;20446;-72
2023/05/04 01:46:47;;;;;;;;;;;;;;;10.02;60.11;93183.84;2068226;69;20062;-73
2023/05/04 01:49:12;;;;;;;;;;;;;;;10.02;60.46;93173.31;2055451;70;20058;-73
2023/05/04 01:51:38;;;;;;;;;;;;;;;9.96;60.50;93175.72;2055392;70;20082;-72
2023/05/04 01:54:03;;;;;;;;;;;;;;;9.91;60.99;93174.69;2065492;69;20451;-72
2023/05/04 01:56:30;;;;;;;;;;;;;;;9.89;60.95;93182.22;2055310;69;20127;-72
2023/05/04 01:58:55;;;;;;;;;;;;;;;9.78;61.03;93183.59;2068466;69;20138;-72
2023/05/04 02:01:21;;;;;;;;;;;;;;;9.83;61.08;93179.00;2068507;69;20137;-73
2023/05/04 02:03:47;;;;;;;;;;;;;;;9.80;61.78;93183.72;2068651;69;20381;-73
2023/05/04 02:06:12;;;;;;;;;;;;;;;9.92;61.50;93186.66;2068691;69;20058;-73
2023/05/04 02:08:38;;;;;;;;;;;;;;;9.73;62.32;93187.44;2071610;69;20461;-73
2023/05/04 02:11:03;;;;;;;;;;;;;;;9.35;64.00;93186.16;2068554;69;20592;-73
2023/05/04 02:13:30;;;;;;;;;;;;;;;9.55;62.31;93189.69;2068518;69;20081;-73
2023/05/04 02:15:56;;;;;;;;;;;;;;;9.45;63.01;93188.97;2055585;69;20469;-73
2023/05/04 02:18:25;;;;;;;;;;;;;;;9.45;62.94;93185.41;2055474;70;20145;-73
2023/05/04 02:20:52;;;;;;;;;;;;;;;9.45;62.57;93183.34;2068408;69;20081;-75
2023/05/04 02:23:17;;;;;;;;;;;;;;;9.36;63.30;93184.81;2068550;69;20090;-73
2023/05/04 02:25:43;;;;;;;;;;;;;;;9.16;63.13;93183.31;2065721;69;20120;-73
2023/05/04 02:28:08;;;;;;;;;;;;;;;9.47;61.92;93182.75;2068138;69;20188;-73
2023/05/04 02:30:36;;;;;;;;;;;;;;;9.38;62.64;93187.03;2055382;70;20047;-73
2023/05/04 02:33:01;;;;;;;;;;;;;;;9.58;62.16;93187.78;2068392;69;20429;-73
2023/05/04 02:35:27;;;;;;;;;;;;;;;9.34;63.04;93189.53;2068354;69;20086;-72
2023/05/04 02:37:52;;;;;;;;;;;;;;;9.32;62.56;93184.53;2055620;70;20092;-73
2023/05/04 02:40:18;;;;;;;;;;;;;;;9.26;63.07;93183.34;2068395;69;20081;-73
2023/05/04 02:42:43;;;;;;;;;;;;;;;9.28;63.17;93178.59;2055206;69;20046;-73
2023/05/04 02:45:10;;;;;;;;;;;;;;;9.39;62.27;93183.66;2055370;70;20165;-74
2023/05/04 02:47:35;;;;;;;;;;;;;;;9.19;64.23;93184.22;2055358;70;20050;-74
2023/05/04 02:50:01;;;;;;;;;;;;;;;9.23;62.97;93190.13;2055455;69;20046;-73
2023/05/04 02:52:26;;;;;;;;;;;;;;;9.21;62.85;93187.16;2055601;70;20070;-73
2023/05/04 02:54:52;;;;;;;;;;;;;;;9.21;62.53;93198.41;2068329;69;20054;-73
2023/05/04 02:57:17;;;;;;;;;;;;;;;9.16;61.96;93192.50;2068185;69;20050;-74
2023/05/04 02:59:43;;;;;;;;;;;;;;;9.05;63.94;93195.88;2055324;70;20104;-73
2023/05/04 03:02:08;;;;;;;;;;;;;;;9.11;62.52;93196.31;2054758;69;20062;-72
2023/05/04 03:04:34;;;;;;;;;;;;;;;9.05;63.92;93192.34;2067925;69;20120;-73
2023/05/04 03:06:59;;;;;;;;;;;;;;;8.99;64.07;93191.91;2064922;69;20090;-73
2023/05/04 03:09:25;;;;;;;;;;;;;;;9.02;62.68;93190.69;2067751;69;20051;-73
2023/05/04 03:11:50;;;;;;;;;;;;;;;8.92;63.56;93190.69;2054874;70;20061;-73
2023/05/04 03:14:16;;;;;;;;;;;;;;;8.89;64.26;93192.63;2055075;70;20062;-73
2023/05/04 03:16:44;;;;;;;;;;;;;;;8.99;63.19;93194.72;2067818;69;20054;-72
2023/05/04 03:19:10;;;;;;;;;;;;;;;8.91;62.56;93195.56;2065383;69;20161;-73
2023/05/04 03:21:35;;;;;;;;;;;;;;;8.92;64.00;93190.69;2068246;69;20129;-73
2023/05/04 03:24:01;;;;;;;;;;;;;;;8.91;63.70;93194.84;2068313;69;20074;-73
2023/05/04 03:26:26;;;;;;;;;;;;;;;8.81;64.01;93200.44;2055238;70;20058;-73
2023/05/04 03:28:52;;;;;;;;;;;;;;;8.83;64.58;93194.97;2068120;69;20148;-73
2023/05/04 03:31:17;;;;;;;;;;;;;;;8.88;63.72;93198.81;2068254;69;20049;-73
2023/05/04 03:33:46;;;;;;;;;;;;;;;8.77;63.55;93194.50;2068424;69;20124;-73
2023/05/04 03:36:11;;;;;;;;;;;;;;;8.80;63.32;93187.00;2068217;69;20062;-73
2023/05/04 03:38:40;;;;;;;;;;;;;;;8.78;63.14;93192.44;2068109;69;20047;-74
2023/05/04 03:41:05;;;;;;;;;;;;;;;8.68;63.96;93184.00;2063706;69;20086;-73
2023/05/04 03:43:31;;;;;;;;;;;;;;;8.57;64.61;93187.38;2048956;70;20151;-74
2023/05/04 03:45:58;;;;;;;;;;;;;;;8.67;63.86;93193.03;2051321;70;20162;-74
2023/05/04 03:48:23;;;;;;;;;;;;;;;8.58;64.51;93198.00;2051279;70;20566;-74
2023/05/04 03:50:50;;;;;;;;;;;;;;;8.56;64.00;93189.44;2051391;70;20529;-74
2023/05/04 03:53:15;;;;;;;;;;;;;;;8.39;64.72;93197.97;2048521;70;20051;-73
2023/05/04 03:55:42;;;;;;;;;;;;;;;8.61;65.02;93185.63;2048607;70;20057;-73
2023/05/04 03:58:07;;;;;;;;;;;;;;;8.56;64.54;93185.88;2049130;70;20059;-74
2023/05/04 04:00:33;;;;;;;;;;;;;;;8.47;64.16;93192.94;2051356;70;20059;-73
2023/05/04 04:03:07;;;;;;;;;;;;;;;8.06;66.95;93194.66;2051241;70;20090;-74
2023/05/04 04:05:33;;;;;;;;;;;;;;;8.25;65.01;93191.22;2048487;70;20090;-74
2023/05/04 04:07:58;;;;;;;;;;;;;;;8.30;65.22;93193.03;2049137;70;20399;-74
2023/05/04 04:10:25;;;;;;;;;;;;;;;8.30;65.08;93193.03;2048553;70;20051;-74
2023/05/04 04:12:50;;;;;;;;;;;;;;;8.24;65.21;93198.88;2048560;70;20082;-74
2023/05/04 04:15:16;;;;;;;;;;;;;;;8.20;65.19;93190.19;2049034;70;20133;-74
2023/05/04 04:17:41;;;;;;;;;;;;;;;8.22;65.52;93190.31;2049043;70;20116;-74
2023/05/04 04:20:07;;;;;;;;;;;;;;;8.23;66.07;93185.44;2048972;70;20127;-74
2023/05/04 04:22:34;;;;;;;;;;;;;;;8.24;65.50;93190.47;2051088;70;20047;-74
2023/05/04 04:25:00;;;;;;;;;;;;;;;8.31;65.12;93198.03;2051261;70;20512;-73
2023/05/04 04:27:25;;;;;;;;;;;;;;;8.17;65.39;93196.22;2048930;70;20134;-73
2023/05/04 04:29:50;;;;;;;;;;;;;;;8.13;65.24;93205.03;2048988;70;20100;-73
2023/05/04 04:32:16;;;;;;;;;;;;;;;8.18;66.89;93208.91;2049045;70;20086;-73
2023/05/04 04:34:42;;;;;;;;;;;;;;;8.22;65.18;93212.75;2049305;70;20116;-73
2023/05/04 04:37:07;;;;;;;;;;;;;;;8.29;66.01;93211.91;2049082;70;20059;-74
2023/05/04 04:39:33;;;;;;;;;;;;;;;8.22;65.52;93212.03;2049068;70;20097;-74
2023/05/04 04:41:58;;;;;;;;;;;;;;;8.18;66.32;93214.50;2052449;70;20061;-73
2023/05/04 04:44:24;;;;;;;;;;;;;;;8.18;65.79;93212.44;2055660;69;20056;-73
2023/05/04 04:46:49;;;;;;;;;;;;;;;8.27;65.11;93217.34;2055605;69;20134;-72
2023/05/04 04:49:16;;;;;;;;;;;;;;;8.40;64.59;93219.81;2055596;69;20050;-73
2023/05/04 04:51:42;;;;;;;;;;;;;;;8.46;65.32;93216.72;2055489;69;20462;-73
2023/05/04 04:54:07;;;;;;;;;;;;;;;8.46;65.02;93216.72;2068459;69;20050;-73
2023/05/04 04:56:33;;;;;;;;;;;;;;;8.42;65.39;93219.22;2055463;70;20050;-73
2023/05/04 04:58:58;;;;;;;;;;;;;;;8.43;65.49;93215.09;2068591;69;20050;-73
2023/05/04 05:01:25;;;;;;;;;;;;;;;8.56;65.42;93219.56;2068532;69;20047;-73
2023/05/04 05:03:50;;;;;;;;;;;;;;;8.47;66.28;93218.19;2055585;69;20115;-73
2023/05/04 05:06:16;;;;;;;;;;;;;;;8.53;65.92;93220.75;2055647;70;20054;-74
2023/05/04 05:08:42;;;;;;;;;;;;;;;8.60;65.59;93214.25;2055687;70;20050;-74
2023/05/04 05:11:08;;;;;;;;;;;;;;;8.60;65.68;93217.06;2055455;70;20549;-73
2023/05/04 05:13:34;;;;;;;;;;;;;;;8.64;65.15;93223.00;2055397;70;20050;-76
2023/05/04 05:15:59;;;;;;;;;;;;;;;8.63;64.81;93224.31;2068455;69;20165;-75
2023/05/04 05:18:25;;;;;;;;;;;;;;;8.61;65.53;93224.16;2055462;69;20050;-75
2023/05/04 05:20:52;;;;;;;;;;;;;;;8.65;65.42;93227.28;2055744;70;20073;-73
2023/05/04 05:23:17;;;;;;;;;;;;;;;8.66;65.26;93223.16;2055806;70;20473;-73
2023/05/04 05:25:43;;;;;;;;;;;;;;;8.61;65.84;93219.31;2055430;70;20515;-73
2023/05/04 05:28:08;;;;;;;;;;;;;;;8.73;64.85;93224.34;2055311;70;20053;-73
2023/05/04 05:30:34;;;;;;;;;;;;;;;8.83;64.68;93225.84;2055579;70;20053;-73
2023/05/04 05:32:59;;;;;;;;;;;;;;;8.77;64.85;93225.41;2055587;69;20070;-73
2023/05/04 05:35:25;;;;;;;;;;;;;;;8.54;65.55;93220.16;2055510;69;20058;-74
2023/05/04 05:37:51;;;;;;;;;;;;;;;8.62;65.76;93223.59;2055524;69;20050;-73
2023/05/04 05:40:16;;;;;;;;;;;;;;;8.69;65.28;93226.84;2055592;70;20489;-73
2023/05/04 05:42:42;;;;;;;;;;;;;;;8.68;65.25;93222.56;2055519;69;20051;-73
2023/05/04 05:45:09;;;;;;;;;;;;;;;8.69;65.35;93226.84;2055464;69;20146;-74
2023/05/04 05:47:35;;;;;;;;;;;;;;;8.71;65.42;93219.34;2055635;70;20085;-73
2023/05/04 05:50:01;;;;;;;;;;;;;;;8.82;65.02;93218.03;2055774;70;20058;-73
2023/05/04 05:52:27;;;;;;;;;;;;;;;8.86;64.59;93216.25;2055602;70;20481;-73
2023/05/04 05:54:52;;;;;;;;;;;;;;;8.96;64.89;93218.34;2055687;69;20053;-73
2023/05/04 05:57:19;;;;;;;;;;;;;;;8.86;64.98;93215.53;2055416;70;20208;-73
2023/05/04 05:59:45;;;;;;;;;;;;;;;8.95;64.97;93214.78;2055707;69;20055;-73
2023/05/04 06:02:13;;;;;;;;;;;;;;;8.95;64.58;93216.88;2055333;69;20136;-73
2023/05/04 06:04:39;;;;;;;;;;;;;;;8.87;64.80;93209.31;2068483;69;20129;-73
2023/05/04 06:07:04;;;;;;;;;;;;;;;9.09;63.46;93209.50;2055538;70;20057;-73
2023/05/04 06:09:31;;;;;;;;;;;;;;;9.21;62.72;93216.03;2055519;70;20058;-73
2023/05/04 06:11:56;;;;;;;;;;;;;;;9.20;62.19;93211.72;2055393;69;20057;-74
2023/05/04 06:14:22;;;;;;;;;;;;;;;9.31;62.89;93210.41;2055614;69;20141;-74
2023/05/04 06:16:47;;;;;;;;;;;;;;;9.26;63.24;93198.13;2055386;69;20096;-74
2023/05/04 06:19:13;;;;;;;;;;;;;;;9.37;63.57;93202.41;2055404;70;20109;-74
2023/05/04 06:21:39;;;;;;;;;;;;;;;9.51;62.80;93191.47;2055300;69;20047;-74
2023/05/04 06:24:04;;;;;;;;;;;;;;;9.38;63.76;93193.38;2055413;70;20057;-74
2023/05/04 06:26:30;;;;;;;;;;;;;;;9.46;62.64;93189.69;2055647;69;20157;-74
2023/05/04 06:28:55;;;;;;;;;;;;;;;9.56;62.82;93177.09;2068379;69;20123;-74
2023/05/04 06:31:22;;;;;;;;;;;;;;;9.47;63.73;93183.47;2055592;70;20158;-73
2023/05/04 06:33:48;;;;;;;;;;;;;;;9.71;63.10;93176.03;2055451;69;20093;-74
2023/05/04 06:36:14;;;;;;;;;;;;;;;9.79;62.80;93176.63;2055490;70;20097;-74
2023/05/04 06:38:39;;;;;;;;;;;;;;;9.91;61.96;93166.25;2055492;69;20078;-75
2023/05/04 06:41:05;;;;;;;;;;;;;;;10.15;60.86;93169.28;2055406;70;20062;-74
2023/05/04 06:43:31;;;;;;;;;;;;;;;9.96;60.96;93169.34;2055504;70;20090;-75
2023/05/04 06:46:00;;;;;;;;;;;;;;;10.14;59.93;93165.75;2055691;70;20050;-74
2023/05/04 06:48:26;;;;;;;;;;;;;;;10.09;61.14;93157.63;2055559;69;20046;-75
2023/05/04 06:50:52;;;;;;;;;;;;;;;10.34;61.17;93160.78;2068466;69;20500;-74
2023/05/04 06:53:17;;;;;;;;;;;;;;;10.31;59.11;93166.88;2055410;70;20548;-74
2023/05/04 06:55:43;;;;;;;;;;;;;;;10.64;61.19;93159.34;2068434;69;20055;-74
2023/05/04 06:58:08;;;;;;;;;;;;;;;10.86;60.86;93160.09;2055235;69;20050;-74
2023/05/04 07:00:34;;;;;;;;;;;;;;;10.87;59.33;93155.94;2073877;69;20084;-74
2023/05/04 07:02:59;;;;;;;;;;;;;;;11.18;60.41;93153.06;2074793;69;20079;-75
2023/05/04 07:05:25;;;;;;;;;;;;;;;11.34;61.56;93155.44;2074902;69;20468;-74
2023/05/04 07:07:50;;;;;;;;;;;;;;;11.53;61.26;93149.66;2071757;69;20134;-75
2023/05/04 07:10:16;;;;;;;;;;;;;;;11.71;61.96;93153.63;2071899;69;20048;-75
2023/05/04 07:12:41;;;;;;;;;;;;;;;11.98;59.99;93144.03;2074848;69;20423;-74
2023/05/04 07:15:10;;;;;;;;;;;;;;;12.34;60.93;93145.56;2075335;69;20519;-75
2023/05/04 07:17:36;;;;;;;;;;;;;;;12.68;61.13;93149.00;2075549;69;20109;-76
2023/05/04 07:20:03;;;;;;;;;;;;;;;13.18;60.27;93139.97;2075500;69;20059;-74
2023/05/04 07:22:30;;;;;;;;;;;;;;;13.38;56.95;93143.28;2075606;69;20139;-75
2023/05/04 07:24:58;;;;;;;;;;;;;;;13.72;55.05;93138.09;2072206;69;20049;-74
2023/05/04 07:27:24;;;;;;;;;;;;;;;14.01;55.23;93134.72;2075563;69;20058;-74
2023/05/04 07:29:49;;;;;;;;;;;;;;;14.36;52.37;93130.94;2075375;69;20083;-75
2023/05/04 07:32:15;;;;;;;;;;;;;;;14.53;49.91;93124.81;2075357;69;20079;-74
2023/05/04 07:34:41;;;;;;;;;;;;;;;14.83;50.15;93128.50;2071992;69;20098;-75
2023/05/04 07:37:06;;;;;;;;;;;;;;;14.66;46.78;93117.69;2075408;69;20049;-74
2023/05/04 07:39:33;;;;;;;;;;;;;;;14.98;47.64;93115.78;2072109;69;20122;-74
2023/05/04 07:41:59;;;;;;;;;;;;;;;15.06;45.50;93118.31;2075282;69;20122;-74
2023/05/04 07:44:25;;;;;;;;;;;;;;;15.52;46.61;93106.44;2075522;69;20064;-73
2023/05/04 07:46:50;;;;;;;;;;;;;;;15.50;44.65;93106.34;2075500;69;20067;-73
2023/05/04 07:49:16;;;;;;;;;;;;;;;15.91;43.67;93104.78;2075456;69;20048;-74
2023/05/04 07:51:41;;;;;;;;;;;;;;;16.34;43.68;93095.38;2075405;69;20415;-74
2023/05/04 07:54:07;;;;;;;;;;;;;;;17.07;43.05;93097.94;2071947;69;20083;-74
2023/05/04 07:56:33;;;;;;;;;;;;;;;17.24;43.28;93097.25;2075046;69;20044;-73
2023/05/04 07:58:59;;;;;;;;;;;;;;;17.47;41.92;93101.75;2075343;69;20508;-73
2023/05/04 08:01:25;;;;;;;;;;;;;;;17.53;42.76;93099.16;2075418;69;20455;-74
2023/05/04 08:03:50;;;;;;;;;;;;;;;17.34;40.87;93106.22;2075381;69;20044;-75
2023/05/04 08:06:16;;;;;;;;;;;;;;;17.82;39.89;93095.38;2072162;69;20051;-75
2023/05/04 08:08:41;;;;;;;;;;;;;;;17.85;40.33;93093.34;2075406;69;20091;-75
2023/05/04 08:11:10;;;;;;;;;;;;;;;17.17;42.84;93087.72;2072036;69;20041;-75
2023/05/04 08:13:35;;;;;;;;;;;;;;;18.51;42.37;93097.34;2071816;69;20107;-74
2023/05/04 08:16:01;;;;;;;;;;;;;;;18.96;39.96;93088.31;2071921;69;20495;-75
2023/05/04 08:18:27;;;;;;;;;;;;;;;18.91;38.84;93074.56;2075279;69;20480;-74
2023/05/04 08:20:52;;;;;;;;;;;;;;;19.36;38.32;93085.44;2072064;69;20121;-74
2023/05/04 08:23:17;;;;;;;;;;;;;;;17.85;39.27;93081.97;2075396;69;20502;-74
2023/05/04 08:25:43;;;;;;;;;;;;;;;19.11;39.58;93081.03;2071737;69;20438;-75
2023/05/04 08:28:10;;;;;;;;;;;;;;;19.99;36.66;93083.97;2075214;69;20075;-74
2023/05/04 08:30:36;;;;;;;;;;;;;;;20.12;36.16;93085.09;2075410;69;20412;-74
2023/05/04 08:33:02;;;;;;;;;;;;;;;20.53;34.64;93073.53;2075186;69;20088;-74
2023/05/04 08:35:27;;;;;;;;;;;;;;;20.69;36.01;93084.69;2075299;69;20143;-74
2023/05/04 08:37:53;;;;;;;;;;;;;;;20.85;36.44;93080.84;2071915;69;20140;-75
2023/05/04 08:40:19;;;;;;;;;;;;;;;20.55;35.73;93072.84;2075246;69;20055;-75
2023/05/04 08:42:49;;;;;;;;;;;;;;;21.19;33.08;93072.50;2075044;69;20127;-75
2023/05/04 08:45:15;;;;;;;;;;;;;;;21.73;33.33;93084.69;2071824;69;20048;-74
2023/05/04 08:47:42;;;;;;;;;;;;;;;21.41;32.15;93078.88;2075184;69;20072;-73
2023/05/04 08:50:08;;;;;;;;;;;;;;;22.19;33.43;93075.09;2075303;69;20047;-74
2023/05/04 08:52:34;;;;;;;;;;;;;;;21.38;34.65;93068.75;2075237;69;20052;-74
2023/05/04 08:55:00;;;;;;;;;;;;;;;22.34;31.88;93071.13;2075239;69;20044;-74
2023/05/04 08:57:26;;;;;;;;;;;;;;;22.45;30.97;93066.34;2069018;69;20135;-75
2023/05/04 08:59:52;;;;;;;;;;;;;;;22.73;31.44;93066.25;2075372;69;20048;-75
2023/05/04 09:02:21;;;;;;;;;;;;;;;22.13;32.44;93058.47;2075371;69;20036;-75
2023/05/04 09:04:50;;;;;;;;;;;;;;;22.03;30.82;93061.06;2075261;69;20530;-75
2023/05/04 09:07:17;;;;;;;;;;;;;;;22.60;32.85;93055.94;2071870;69;20048;-75
2023/05/04 09:09:42;;;;;;;;;;;;;;;23.08;30.46;93062.69;2071783;69;20562;-74
2023/05/04 09:12:08;;;;;;;;;;;;;;;23.30;30.62;93055.94;2071697;69;20080;-75
2023/05/04 09:14:34;;;;;;;;;;;;;;;24.30;30.04;93049.03;2075055;69;20044;-74
2023/05/04 09:17:00;;;;;;;;;;;;;;;24.35;30.95;93045.53;2071803;69;20055;-75
2023/05/04 09:19:32;;;;;;;;;;;;;;;22.61;29.74;93046.63;2075229;69;20051;-74
2023/05/04 09:22:01;;;;;;;;;;;;;;;23.24;29.77;93039.31;2075295;69;20088;-74
2023/05/04 09:24:27;;;;;;;;;;;;;;;23.16;28.51;93035.56;2075132;69;20404;-74
2023/05/04 09:26:52;;;;;;;;;;;;;;;24.43;29.19;93029.84;2071547;69;20044;-74
2023/05/04 09:29:18;;;;;;;;;;;;;;;24.18;27.63;93035.19;2075337;69;20171;-74
2023/05/04 09:31:49;;;;;;;;;;;;;;;24.11;28.43;93030.06;2072033;69;20046;-74
2023/05/04 09:34:16;;;;;;;;;;;;;;;23.22;28.89;93029.94;2075098;69;20059;-75
2023/05/04 09:36:41;;;;;;;;;;;;;;;25.07;30.17;93030.00;2075091;69;20040;-75
2023/05/04 09:39:10;;;;;;;;;;;;;;;25.84;28.25;93014.94;2075192;69;20091;-75
2023/05/04 09:41:35;;;;;;;;;;;;;;;26.06;26.20;93017.28;2074902;69;20064;-75
2023/05/04 09:44:02;;;;;;;;;;;;;;;26.77;26.67;93014.88;2075194;69;20055;-75
2023/05/04 09:46:28;;;;;;;;;;;;;;;27.03;28.09;93008.53;2075244;69;20083;-76
2023/05/04 09:48:58;;;;;;;;;;;;;;;27.49;26.40;93007.25;2072133;69;20135;-76
2023/05/04 09:51:24;;;;;;;;;;;;;;;25.21;27.24;93008.53;2071720;69;20163;-76
2023/05/04 09:53:50;;;;;;;;;;;;;;;25.76;27.48;93006.22;2075245;69;20049;-76
2023/05/04 09:56:16;;;;;;;;;;;;;;;25.95;26.25;93004.22;2071875;69;20056;-75
2023/05/04 09:58:42;;;;;;;;;;;;;;;26.32;26.45;92999.44;2074998;69;20059;-75
2023/05/04 10:01:08;;;;;;;;;;;;;;;27.52;26.33;93005.78;2075205;69;20480;-76
2023/05/04 10:03:33;;;;;;;;;;;;;;;26.88;25.53;92998.31;2075243;69;20202;-75
2023/05/04 10:06:01;;;;;;;;;;;;;;;26.81;26.74;92988.91;2071811;69;20044;-76
2023/05/04 10:08:27;;;;;;;;;;;;;;;26.95;25.30;92987.53;2075050;69;20224;-75
2023/05/04 10:10:53;;;;;;;;;;;;;;;26.11;25.67;92978.38;2071682;69;20488;-75
2023/05/04 10:13:18;;;;;;;;;;;;;;;26.82;24.49;92970.16;2074971;69;20044;-76
2023/05/04 10:15:51;;;;;;;;;;;;;;;27.41;24.94;92978.31;2075094;69;20117;-76
2023/05/04 10:18:25;;;;;;;;;;;;;;;28.22;25.47;92974.75;2071620;69;20140;-76
2023/05/04 10:20:53;;;;;;;;;;;;;;;30.53;24.15;92980.13;2075130;69;20164;-75
2023/05/04 10:23:38;;;;;;;;;;;;;;;30.29;24.84;92978.19;2074990;69;20048;-75
2023/05/04 10:26:12;;;;;;;;;;;;;;;30.37;23.68;92962.84;2071672;69;20078;-76
2023/05/04 10:29:16;;;;;;;;;;;;;;;32.16;21.91;92968.63;2071525;69;20060;-76
2023/05/04 10:31:42;;;;;;;;;;;;;;;32.12;22.63;92966.53;2060688;69;20065;-76
2023/05/04 10:34:11;;;;;;;;;;;;;;;33.66;20.59;92966.56;2060697;69;20074;-76
2023/05/04 10:36:38;;;;;;;;;;;;;;;34.73;19.31;92969.13;2058096;69;20053;-76
2023/05/04 10:39:04;;;;;;;;;;;;;;;35.75;18.58;92968.50;2060656;69;20049;-76
2023/05/04 10:41:30;;;;;;;;;;;;;;;37.11;16.79;92969.22;2060628;69;20056;-76
2023/05/04 10:44:05;;;;;;;;;;;;;;;38.14;15.43;92966.88;2060666;69;20155;-75
2023/05/04 10:46:31;;;;;;;;;;;;;;;37.10;15.58;92959.00;2060736;69;20163;-76
2023/05/04 10:48:56;;;;;;;;;;;;;;;40.19;14.91;92956.56;2057772;69;20066;-75
2023/05/04 10:51:23;;;;;;;;;;;;;;;40.33;13.09;92949.25;2060638;69;20143;-76
2023/05/04 10:53:49;;;;;;;;;;;;;;;41.04;14.23;92956.81;2060723;69;20054;-75
2023/05/04 10:56:21;;;;;;;;;;;;;;;41.54;13.71;92943.88;2060576;69;20049;-76
2023/05/04 10:58:47;;;;;;;;;;;;;;;41.19;12.52;92948.63;2057702;69;20050;-79
2023/05/04 11:01:13;;;;;;;;;;;;;;;42.24;12.90;92947.47;2060775;69;20090;-78
2023/05/04 11:03:42;;;;;;;;;;;;;;;39.98;12.98;92944.28;2074913;69;20090;-78
2023/05/04 11:06:23;;;;;;;;;;;;;;;38.16;14.44;92937.41;2075281;69;20068;-75
2023/05/04 11:08:59;;;;;;;;;;;;;;;40.71;12.30;92931.19;2072347;69;20055;-75
2023/05/04 11:11:24;;;;;;;;;;;;;;;39.25;15.65;92925.50;2071827;69;20055;-78
2023/05/04 11:13:50;;;;;;;;;;;;;;;40.59;12.46;92924.34;2071624;69;20068;-75
2023/05/04 11:16:25;;;;;;;;;;;;;;;43.01;11.62;92929.75;2071957;69;20075;-75
2023/05/04 11:18:52;;;;;;;;;;;;;;;45.47;11.12;92936.34;2075540;69;20158;-75
2023/05/04 11:21:24;;;;;;;;;;;;;;;46.61;11.10;92934.19;2075722;69;20063;-78
2023/05/04 11:23:55;;;;;;;;;;;;;;;46.34;10.66;92939.06;2052607;69;20153;-77
2023/05/04 11:26:21;;;;;;;;;;;;;;;44.63;9.63;92921.88;2054556;70;20639;-78
2023/05/04 11:28:47;;;;;;;;;;;;;;;46.50;10.40;92919.28;2067975;69;20137;-80
2023/05/04 11:31:13;;;;;;;;;;;;;;;44.44;10.82;92917.94;2055245;69;20058;-76
2023/05/04 11:33:43;;;;;;;;;;;;;;;42.67;12.26;92909.53;2068078;69;20495;-75
2023/05/04 11:36:09;;;;;;;;;;;;;;;41.12;11.38;92895.13;2055249;70;20115;-76
2023/05/04 11:38:35;;;;;;;;;;;;;;;41.93;11.53;92894.53;2055583;69;20046;-84
2023/05/04 11:41:01;;;;;;;;;;;;;;;42.18;10.81;92893.84;2055312;69;20058;-81
2023/05/04 11:43:27;;;;;;;;;;;;;;;45.56;10.57;92890.34;2055243;70;20046;-78
2023/05/04 11:45:54;;;;;;;;;;;;;;;47.40;9.10;92897.69;2055072;69;20062;-79
2023/05/04 11:48:20;;;;;;;;;;;;;;;43.70;10.29;92881.09;2054971;70;20086;-78
2023/05/04 11:50:46;;;;;;;;;;;;;;;43.45;9.64;92878.28;2054855;70;20094;-76
2023/05/04 11:53:12;;;;;;;;;;;;;;;44.54;10.94;92878.72;2067873;69;20494;-76
2023/05/04 11:55:39;;;;;;;;;;;;;;;47.21;10.11;92877.53;2055138;70;20054;-76
2023/05/04 11:58:07;;;;;;;;;;;;;;;45.83;8.64;92882.53;2054888;70;20115;-76
2023/05/04 12:00:36;;;;;;;;;;;;;;;46.77;8.85;92870.41;2054736;70;20443;-76
2023/05/04 12:03:02;;;;;;;;;;;;;;;47.27;9.67;92873.34;2055054;70;20501;-75
2023/05/04 12:05:28;;;;;;;;;;;;;;;47.35;7.62;92860.84;2055491;70;20119;-75
2023/05/04 12:07:54;;;;;;;;;;;;;;;49.00;8.50;92861.69;2068176;69;20073;-78
2023/05/04 12:10:27;;;;;;;;;;;;;;;47.63;6.98;92867.53;2055337;70;20631;-79
2023/05/04 12:12:53;;;;;;;;;;;;;;;49.59;7.07;92856.66;2054509;70;20054;-75
2023/05/04 12:15:29;;;;;;;;;;;;;;;49.10;6.79;92864.53;2055874;70;20116;-77
2023/05/04 12:17:55;;;;;;;;;;;;;;;50.74;6.73;92865.16;2068645;69;20149;-76
2023/05/04 12:20:24;;;;;;;;;;;;;;;51.76;7.06;92855.63;2055608;69;20161;-77
2023/05/04 12:22:50;;;;;;;;;;;;;;;52.55;6.71;92853.94;2055691;70;20474;-76
2023/05/04 12:25:19;;;;;;;;;;;;;;;52.42;7.01;92850.00;2055890;70;20050;-80
2023/05/04 12:27:45;;;;;;;;;;;;;;;52.80;6.95;92854.50;2055650;70;20057;-81
2023/05/04 12:30:11;;;;;;;;;;;;;;;52.39;7.43;92842.81;2055617;70;20073;-76
2023/05/04 12:32:36;;;;;;;;;;;;;;;51.68;7.55;92838.41;2055609;69;20117;-77
2023/05/04 12:35:03;;;;;;;;;;;;;;;52.70;5.98;92844.22;2068611;69;20062;-76
2023/05/04 12:37:28;;;;;;;;;;;;;;;49.04;6.96;92831.47;2055547;69;20145;-78
2023/05/04 12:39:54;;;;;;;;;;;;;;;52.85;7.76;92846.47;2055708;70;20217;-76
2023/05/04 12:42:19;;;;;;;;;;;;;;;51.77;6.69;92830.72;2055429;70;20050;-81
2023/05/04 12:44:45;;;;;;;;;;;;;;;53.58;6.94;92838.34;2055021;70;20417;-77
2023/05/04 12:47:10;;;;;;;;;;;;;;;51.94;6.27;92826.88;2055562;70;20070;-76